createdAt,value
2018-02-20T00:01:53.270Z,16.17
2018-02-20T00:04:19.666Z,14.03
2018-02-20T00:06:46.100Z,17.00
2018-02-20T00:09:12.529Z,14.33
2018-02-20T00:11:39.030Z,14.97
2018-02-20T00:14:05.429Z,15.40
2018-02-20T00:16:31.822Z,14.83
2018-02-20T00:18:58.238Z,14.07
2018-02-20T00:21:25.384Z,14.87
2018-02-20T00:23:52.554Z,14.87
2018-02-20T00:26:19.691Z,13.70
2018-02-20T00:28:46.814Z,14.43
2018-02-20T00:31:13.230Z,14.47
2018-02-20T00:33:39.613Z,14.40
2018-02-20T00:36:06.123Z,14.20
2018-02-20T00:38:32.553Z,14.63
2018-02-20T00:40:58.939Z,14.70
2018-02-20T00:43:25.314Z,14.53
2018-02-20T00:45:51.770Z,16.17
2018-02-20T00:48:19.008Z,15.97
2018-02-20T00:50:45.486Z,15.20
2018-02-20T00:53:11.914Z,14.27
2018-02-20T00:55:38.294Z,16.00
2018-02-20T00:58:04.669Z,15.30
2018-02-20T01:00:31.085Z,15.13
2018-02-20T01:02:57.501Z,15.83
2018-02-20T01:05:24.666Z,14.77
2018-02-20T01:07:52.199Z,16.47
2018-02-20T01:10:18.600Z,14.67
2018-02-20T01:12:44.992Z,14.40
2018-02-20T01:15:11.394Z,16.50
2018-02-20T01:17:37.778Z,14.57
2018-02-20T01:20:04.374Z,13.93
2018-02-20T01:22:30.773Z,13.60
2018-02-20T01:24:57.173Z,14.53
2018-02-20T01:27:23.636Z,14.30
2018-02-20T01:29:50.079Z,14.80
2018-02-20T01:32:16.461Z,16.10
2018-02-20T01:34:42.874Z,15.17
2018-02-20T01:37:09.314Z,16.20
2018-02-20T01:39:36.450Z,16.90
2018-02-20T01:42:02.831Z,15.53
2018-02-20T01:44:29.243Z,14.47
2018-02-20T01:46:56.472Z,16.13
2018-02-20T01:49:22.905Z,15.43
2018-02-20T01:51:49.327Z,14.77
2018-02-20T01:54:15.706Z,15.17
2018-02-20T01:56:42.205Z,14.27
2018-02-20T01:59:08.625Z,17.27
2018-02-20T02:01:35.042Z,15.47
2018-02-20T02:04:01.428Z,16.90
2018-02-20T02:06:28.586Z,15.70
2018-02-20T02:08:55.066Z,15.43
2018-02-20T02:11:21.463Z,17.40
2018-02-20T02:13:47.953Z,16.53
2018-02-20T02:16:15.121Z,18.30
2018-02-20T02:18:41.456Z,17.37
2018-02-20T02:21:08.617Z,17.60
2018-02-20T02:23:35.739Z,16.43
2018-02-20T02:26:02.131Z,17.37
2018-02-20T02:28:28.596Z,18.67
2018-02-20T02:30:54.979Z,18.73
2018-02-20T02:33:21.369Z,16.50
2018-02-20T02:35:47.799Z,17.37
2018-02-20T02:38:14.229Z,17.30
2018-02-20T02:40:41.483Z,16.60
2018-02-20T02:43:07.891Z,18.33
2018-02-20T02:45:34.278Z,18.30
2018-02-20T02:48:01.440Z,18.20
2018-02-20T02:50:27.853Z,16.77
2018-02-20T02:52:54.981Z,17.30
2018-02-20T02:55:21.364Z,18.67
2018-02-20T02:57:47.844Z,17.40
2018-02-20T03:00:14.238Z,18.93
2018-02-20T03:02:40.620Z,19.90
2018-02-20T03:05:07.810Z,19.70
2018-02-20T03:07:34.289Z,18.20
2018-02-20T03:10:00.723Z,18.63
2018-02-20T03:12:27.897Z,17.90
2018-02-20T03:14:55.021Z,18.03
2018-02-20T03:17:21.394Z,18.70
2018-02-20T03:19:47.811Z,19.30
2018-02-20T03:22:14.954Z,18.30
2018-02-20T03:24:41.394Z,21.47
2018-02-20T03:27:08.546Z,20.07
2018-02-20T03:29:35.661Z,18.20
2018-02-20T03:32:02.038Z,20.50
2018-02-20T03:34:28.432Z,19.20
2018-02-20T03:36:54.867Z,20.47
2018-02-20T03:39:21.271Z,19.83
2018-02-20T03:41:47.839Z,20.80
2018-02-20T03:44:14.372Z,20.27
2018-02-20T03:46:40.778Z,19.97
2018-02-20T03:49:07.342Z,18.50
2018-02-20T03:51:33.726Z,19.50
2018-02-20T03:54:00.116Z,19.10
2018-02-20T03:56:26.640Z,20.03
2018-02-20T03:58:53.025Z,18.20
2018-02-20T04:01:19.422Z,19.80
2018-02-20T04:03:46.633Z,19.20
2018-02-20T04:06:13.019Z,18.13
2018-02-20T04:08:39.417Z,19.23
2018-02-20T04:11:05.863Z,20.03
2018-02-20T04:13:32.246Z,19.60
2018-02-20T04:15:58.650Z,20.60
2018-02-20T04:18:25.028Z,19.27
2018-02-20T04:20:51.397Z,19.23
2018-02-20T04:23:18.536Z,20.03
2018-02-20T04:25:44.973Z,20.90
2018-02-20T04:28:12.147Z,18.50
2018-02-20T04:30:38.525Z,18.50
2018-02-20T04:33:04.919Z,18.80
2018-02-20T04:35:32.126Z,19.40
2018-02-20T04:37:58.506Z,18.93
2018-02-20T04:40:24.898Z,20.27
2018-02-20T04:42:52.036Z,17.70
2018-02-20T04:45:18.442Z,18.30
2018-02-20T04:47:44.905Z,17.70
2018-02-20T04:50:11.294Z,18.47
2018-02-20T04:52:37.685Z,20.60
2018-02-20T04:55:04.842Z,19.10
2018-02-20T04:57:31.967Z,19.70
2018-02-20T04:59:58.350Z,18.70
2018-02-20T05:02:24.762Z,17.70
2018-02-20T05:04:51.178Z,17.80
2018-02-20T05:07:17.566Z,20.83
2018-02-20T05:09:43.983Z,17.47
2018-02-20T05:12:10.416Z,21.20
2018-02-20T05:14:36.899Z,16.77
2018-02-20T05:17:03.313Z,18.60
2018-02-20T05:19:30.715Z,20.43
2018-02-20T05:21:57.879Z,21.30
2018-02-20T05:24:24.261Z,19.80
2018-02-20T05:26:50.596Z,18.60
2018-02-20T05:29:17.032Z,19.00
2018-02-20T05:31:44.989Z,18.30
2018-02-20T05:34:11.404Z,20.23
2018-02-20T05:36:37.815Z,19.47
2018-02-20T05:39:04.320Z,19.87
2018-02-20T05:41:31.464Z,19.83
2018-02-20T05:43:58.618Z,21.47
2018-02-20T05:46:25.798Z,19.33
2018-02-20T05:48:52.286Z,18.93
2018-02-20T05:51:18.739Z,17.50
2018-02-20T05:53:45.931Z,18.23
2018-02-20T05:56:12.375Z,19.87
2018-02-20T05:58:38.791Z,20.10
2018-02-20T06:01:05.203Z,19.50
2018-02-20T06:03:32.331Z,18.90
2018-02-20T06:05:58.700Z,19.33
2018-02-20T06:08:25.188Z,19.97
2018-02-20T06:10:51.622Z,19.20
2018-02-20T06:13:18.080Z,18.67
2018-02-20T06:15:44.536Z,17.33
2018-02-20T06:18:10.918Z,18.80
2018-02-20T06:20:37.329Z,19.37
2018-02-20T06:23:03.819Z,19.10
2018-02-20T06:25:30.954Z,18.90
2018-02-20T06:27:58.102Z,18.97
2018-02-20T06:30:25.250Z,18.33
2018-02-20T06:32:52.396Z,20.90
2018-02-20T06:35:19.519Z,20.70
2018-02-20T06:37:45.926Z,20.37
2018-02-20T06:40:12.326Z,19.20
2018-02-20T06:42:39.457Z,19.70
2018-02-20T06:45:06.644Z,19.53
2018-02-20T06:47:33.034Z,18.90
2018-02-20T06:49:59.433Z,20.10
2018-02-20T06:52:25.835Z,19.93
2018-02-20T06:54:52.251Z,20.20
2018-02-20T06:57:19.373Z,19.47
2018-02-20T06:59:46.015Z,21.73
2018-02-20T07:02:12.542Z,20.43
2018-02-20T07:04:38.944Z,21.17
2018-02-20T07:07:05.394Z,20.70
2018-02-20T07:09:31.848Z,20.57
2018-02-20T07:11:58.235Z,20.90
2018-02-20T07:14:24.696Z,20.80
2018-02-20T07:16:51.969Z,19.17
2018-02-20T07:19:18.359Z,20.07
2018-02-20T07:21:45.755Z,22.00
2018-02-20T07:24:13.637Z,19.97
2018-02-20T07:26:40.062Z,21.10
2018-02-20T07:29:06.473Z,21.23
2018-02-20T07:31:32.895Z,21.57
2018-02-20T07:33:59.262Z,22.77
2018-02-20T07:36:25.690Z,21.30
2018-02-20T07:38:52.062Z,21.10
2018-02-20T07:41:18.456Z,21.50
2018-02-20T07:43:45.633Z,21.60
2018-02-20T07:46:12.033Z,19.93
2018-02-20T07:48:38.382Z,20.80
2018-02-20T07:51:04.782Z,20.80
2018-02-20T07:53:31.229Z,21.87
2018-02-20T07:55:57.642Z,21.57
2018-02-20T07:58:24.854Z,24.47
2018-02-20T08:00:51.356Z,21.80
2018-02-20T08:03:17.731Z,22.07
2018-02-20T08:05:44.260Z,22.33
2018-02-20T08:08:10.678Z,21.20
2018-02-20T08:10:37.092Z,22.00
2018-02-20T08:13:04.336Z,21.53
2018-02-20T08:15:30.750Z,22.97
2018-02-20T08:17:57.144Z,22.10
2018-02-20T08:20:23.567Z,21.73
2018-02-20T08:22:57.048Z,20.40
2018-02-20T08:25:24.249Z,21.67
2018-02-20T08:27:50.671Z,23.10
2018-02-20T08:30:17.145Z,20.80
2018-02-20T08:32:45.009Z,22.03
2018-02-20T08:35:11.446Z,20.87
2018-02-20T08:37:37.850Z,21.83
2018-02-20T08:40:04.270Z,21.40
2018-02-20T08:42:30.705Z,23.83
2018-02-20T08:44:57.125Z,21.37
2018-02-20T08:47:23.537Z,21.60
2018-02-20T08:49:49.964Z,22.10
2018-02-20T08:52:17.092Z,21.20
2018-02-20T08:54:43.485Z,22.10
2018-02-20T08:57:09.881Z,21.53
2018-02-20T08:59:36.276Z,19.93
2018-02-20T09:02:02.678Z,20.87
2018-02-20T09:04:29.096Z,22.93
2018-02-20T09:06:55.485Z,21.10
2018-02-20T09:09:21.884Z,22.27
2018-02-20T09:11:48.456Z,20.80
2018-02-20T09:14:14.847Z,23.00
2018-02-20T09:16:41.276Z,20.30
2018-02-20T09:19:07.692Z,22.90
2018-02-20T09:21:34.095Z,21.53
2018-02-20T09:24:01.246Z,22.03
2018-02-20T09:26:27.638Z,23.37
2018-02-20T09:28:54.030Z,21.40
2018-02-20T09:31:20.448Z,21.97
2018-02-20T09:33:46.912Z,22.23
2018-02-20T09:36:13.291Z,24.27
2018-02-20T09:38:39.693Z,22.53
2018-02-20T09:41:06.263Z,20.97
2018-02-20T09:43:32.645Z,23.53
2018-02-20T09:45:59.050Z,22.37
2018-02-20T09:48:26.214Z,23.80
2018-02-20T09:50:52.878Z,23.10
2018-02-20T09:53:19.263Z,22.80
2018-02-20T09:55:46.434Z,20.90
2018-02-20T09:58:12.850Z,23.20
2018-02-20T10:00:39.981Z,24.10
2018-02-20T10:03:06.623Z,22.60
2018-02-20T10:05:33.051Z,23.00
2018-02-20T10:07:59.464Z,24.00
2018-02-20T10:10:25.922Z,21.77
2018-02-20T10:12:52.323Z,22.60
2018-02-20T10:15:18.710Z,23.43
2018-02-20T10:17:46.230Z,21.50
2018-02-20T10:20:13.403Z,22.50
2018-02-20T10:22:39.789Z,24.10
2018-02-20T10:25:06.201Z,22.57
2018-02-20T10:27:32.599Z,24.87
2018-02-20T10:29:58.982Z,23.63
2018-02-20T10:32:25.403Z,21.40
2018-02-20T10:34:51.866Z,21.77
2018-02-20T10:37:18.275Z,25.00
2018-02-20T10:39:44.754Z,22.37
2018-02-20T10:42:11.138Z,23.33
2018-02-20T10:44:37.726Z,24.30
2018-02-20T10:47:04.255Z,22.03
2018-02-20T10:49:32.146Z,23.57
2018-02-20T10:51:59.276Z,22.33
2018-02-20T10:54:25.686Z,23.23
2018-02-20T10:56:52.115Z,24.43
2018-02-20T10:59:18.505Z,22.80
2018-02-20T11:01:45.661Z,22.10
2018-02-20T11:04:12.062Z,24.67
2018-02-20T11:06:38.462Z,24.00
2018-02-20T11:09:04.866Z,24.37
2018-02-20T11:11:31.261Z,22.10
2018-02-20T11:13:58.397Z,23.07
2018-02-20T11:16:24.832Z,22.40
2018-02-20T11:18:51.242Z,23.10
2018-02-20T11:21:17.639Z,22.87
2018-02-20T11:23:44.071Z,23.47
2018-02-20T11:26:10.485Z,23.83
2018-02-20T11:28:37.615Z,20.83
2018-02-20T11:31:04.042Z,22.00
2018-02-20T11:33:30.454Z,22.83
2018-02-20T11:35:56.910Z,21.30
2018-02-20T11:38:24.086Z,23.67
2018-02-20T11:40:51.240Z,19.93
2018-02-20T11:43:18.384Z,22.10
2018-02-20T11:45:45.598Z,20.37
2018-02-20T11:48:12.055Z,20.40
2018-02-20T11:50:38.479Z,21.70
2018-02-20T11:53:04.904Z,21.40
2018-02-20T11:55:31.294Z,21.30
2018-02-20T11:57:57.692Z,18.43
2018-02-20T12:00:24.135Z,20.47
2018-02-20T12:02:50.510Z,19.93
2018-02-20T12:05:16.934Z,21.00
2018-02-20T12:07:43.382Z,19.17
2018-02-20T12:10:09.810Z,20.40
2018-02-20T12:12:36.208Z,20.60
2018-02-20T12:15:02.645Z,19.47
2018-02-20T12:17:29.111Z,20.43
2018-02-20T12:19:55.561Z,19.80
2018-02-20T12:22:22.771Z,18.40
2018-02-20T12:24:49.261Z,19.73
2018-02-20T12:27:15.667Z,20.73
2018-02-20T12:29:42.228Z,20.80
2018-02-20T12:32:08.654Z,20.03
2018-02-20T12:34:35.036Z,18.30
2018-02-20T12:37:01.449Z,17.60
2018-02-20T12:39:28.574Z,16.77
2018-02-20T12:41:55.729Z,16.80
2018-02-20T12:44:22.941Z,16.40
2018-02-20T12:46:49.331Z,17.40
2018-02-20T12:49:16.455Z,17.13
2018-02-20T12:51:42.906Z,17.70
2018-02-20T12:54:10.030Z,15.97
2018-02-20T12:56:36.404Z,19.37
2018-02-20T12:59:03.625Z,18.93
2018-02-20T13:01:30.162Z,18.03
2018-02-20T13:03:56.554Z,20.23
2018-02-20T13:06:22.964Z,18.57
2018-02-20T13:08:49.377Z,17.30
2018-02-20T13:11:16.493Z,17.57
2018-02-20T13:13:43.692Z,20.50
2018-02-20T13:16:10.077Z,17.90
2018-02-20T13:18:36.464Z,20.50
2018-02-20T13:21:03.059Z,17.83
2018-02-20T13:23:29.442Z,19.67
2018-02-20T13:25:55.854Z,21.20
2018-02-20T13:28:23.004Z,20.20
2018-02-20T13:30:50.248Z,22.07
2018-02-20T13:33:16.626Z,18.60
2018-02-20T13:35:43.062Z,18.30
2018-02-20T13:38:09.623Z,21.10
2018-02-20T13:40:36.057Z,22.50
2018-02-20T13:43:02.485Z,20.83
2018-02-20T13:45:29.709Z,21.30
2018-02-20T13:47:56.118Z,20.90
2018-02-20T13:50:22.608Z,21.20
2018-02-20T13:52:48.999Z,21.97
2018-02-20T13:55:15.392Z,21.63
2018-02-20T13:57:42.546Z,20.67
2018-02-20T14:00:08.927Z,18.60
2018-02-20T14:02:35.322Z,20.37
2018-02-20T14:05:01.754Z,21.10
2018-02-20T14:07:28.149Z,19.53
2018-02-20T14:09:54.555Z,19.60
2018-02-20T14:12:20.966Z,17.20
2018-02-20T14:14:47.398Z,19.90
2018-02-20T14:17:13.827Z,18.97
2018-02-20T14:19:40.294Z,17.40
2018-02-20T14:22:06.688Z,21.97
2018-02-20T14:24:33.098Z,20.67
2018-02-20T14:27:00.276Z,22.30
2018-02-20T14:29:26.711Z,20.80
2018-02-20T14:31:53.128Z,23.17
2018-02-20T14:34:20.351Z,23.43
2018-02-20T14:36:46.781Z,19.70
2018-02-20T14:39:13.171Z,22.30
2018-02-20T14:41:39.610Z,21.73
2018-02-20T14:44:06.015Z,22.67
2018-02-20T14:46:32.515Z,22.13
2018-02-20T14:48:59.695Z,22.33
2018-02-20T14:51:26.168Z,23.20
2018-02-20T14:53:52.573Z,22.63
2018-02-20T14:56:19.169Z,25.00
2018-02-20T14:58:47.049Z,23.23
2018-02-20T15:01:14.193Z,24.57
2018-02-20T15:03:41.641Z,25.70
2018-02-20T15:06:08.047Z,25.23
2018-02-20T15:08:34.454Z,26.80
2018-02-20T15:11:00.896Z,24.00
2018-02-20T15:13:27.287Z,24.67
2018-02-20T15:15:54.444Z,26.00
2018-02-20T15:18:21.602Z,26.03
2018-02-20T15:20:48.270Z,26.63
2018-02-20T15:23:14.667Z,26.67
2018-02-20T15:25:41.838Z,28.17
2018-02-20T15:28:08.242Z,24.93
2018-02-20T15:30:35.387Z,24.67
2018-02-20T15:33:02.571Z,25.30
2018-02-20T15:35:28.971Z,28.00
2018-02-20T15:37:56.113Z,17.47
2018-02-20T15:40:22.553Z,28.23
2018-02-20T15:42:49.707Z,26.70
2018-02-20T15:45:16.945Z,27.33
2018-02-20T15:47:43.368Z,26.90
2018-02-20T15:50:09.759Z,27.93
2018-02-20T15:52:36.192Z,25.57
2018-02-20T15:55:02.658Z,28.77
2018-02-20T15:57:29.150Z,29.30
2018-02-20T15:59:55.645Z,26.47
2018-02-20T16:02:22.071Z,26.83
2018-02-20T16:04:48.455Z,27.23
2018-02-20T16:07:14.863Z,26.40
2018-02-20T16:09:42.046Z,26.93
2018-02-20T16:12:08.509Z,27.13
2018-02-20T16:14:35.062Z,26.60
2018-02-20T16:17:01.528Z,28.13
2018-02-20T16:19:27.922Z,27.93
2018-02-20T16:21:54.384Z,28.30
2018-02-20T16:24:20.874Z,27.23
2018-02-20T16:26:47.274Z,26.30
2018-02-20T16:29:13.667Z,26.80
2018-02-20T16:31:40.106Z,28.83
2018-02-20T16:34:06.492Z,28.80
2018-02-20T16:36:32.927Z,26.40
2018-02-20T16:38:59.338Z,27.67
2018-02-20T16:41:25.754Z,26.53
2018-02-20T16:43:52.157Z,27.87
2018-02-20T16:46:19.329Z,28.73
2018-02-20T16:48:46.468Z,27.07
2018-02-20T16:51:12.867Z,28.00
2018-02-20T16:53:39.303Z,26.23
2018-02-20T16:56:05.747Z,29.00
2018-02-20T16:58:32.142Z,28.47
2018-02-20T17:00:58.595Z,27.80
2018-02-20T17:03:24.978Z,27.10
2018-02-20T17:05:52.110Z,28.13
2018-02-20T17:08:18.551Z,28.43
2018-02-20T17:10:45.693Z,27.97
2018-02-20T17:13:12.123Z,25.90
2018-02-20T17:15:38.573Z,27.03
2018-02-20T17:18:04.981Z,28.83
2018-02-20T17:20:31.413Z,28.03
2018-02-20T17:22:58.610Z,29.77
2018-02-20T17:25:25.018Z,27.53
2018-02-20T17:27:51.436Z,28.40
2018-02-20T17:30:17.863Z,25.93
2018-02-20T17:32:44.301Z,26.77
2018-02-20T17:35:10.770Z,28.33
2018-02-20T17:37:37.215Z,26.90
2018-02-20T17:40:03.633Z,27.60
2018-02-20T17:42:30.054Z,26.97
2018-02-20T17:44:56.494Z,28.40
2018-02-20T17:47:22.910Z,26.20
2018-02-20T17:49:50.082Z,25.13
2018-02-20T17:52:16.510Z,25.67
2018-02-20T17:54:43.734Z,26.67
2018-02-20T17:57:10.148Z,22.83
2018-02-20T17:59:36.612Z,25.50
2018-02-20T18:02:03.753Z,26.90
2018-02-20T18:04:30.899Z,26.63
2018-02-20T18:06:57.343Z,25.97
2018-02-20T18:09:23.742Z,24.87
2018-02-20T18:11:50.152Z,26.57
2018-02-20T18:14:16.611Z,28.90
2018-02-20T18:16:43.030Z,28.73
2018-02-20T18:19:09.442Z,27.90
2018-02-20T18:21:35.875Z,27.23
2018-02-20T18:24:02.306Z,28.73
2018-02-20T18:26:28.715Z,27.43
2018-02-20T18:28:55.883Z,27.50
2018-02-20T18:31:22.306Z,28.03
2018-02-20T18:33:48.894Z,28.07
2018-02-20T18:36:15.315Z,27.40
2018-02-20T18:38:44.879Z,25.53
2018-02-20T18:41:11.462Z,26.77
2018-02-20T18:43:38.050Z,27.00
2018-02-20T18:46:05.186Z,26.00
2018-02-20T18:48:32.342Z,27.90
2018-02-20T18:50:58.766Z,28.90
2018-02-20T18:53:25.972Z,29.70
2018-02-20T18:55:52.381Z,29.30
2018-02-20T18:58:18.809Z,26.80
2018-02-20T19:00:45.218Z,26.93
2018-02-20T19:03:11.689Z,26.70
2018-02-20T19:05:38.105Z,27.03
2018-02-20T19:08:04.532Z,25.60
2018-02-20T19:10:31.684Z,26.80
2018-02-20T19:12:58.840Z,25.93
2018-02-20T19:15:25.233Z,26.80
2018-02-20T19:17:51.645Z,26.20
2018-02-20T19:20:18.210Z,28.20
2018-02-20T19:22:44.623Z,26.67
2018-02-20T19:25:11.053Z,25.57
2018-02-20T19:27:38.281Z,24.67
2018-02-20T19:30:04.669Z,26.20
2018-02-20T19:32:31.813Z,28.63
2018-02-20T19:34:58.997Z,25.87
2018-02-20T19:37:25.410Z,26.33
2018-02-20T19:39:52.547Z,24.50
2018-02-20T19:42:19.792Z,24.13
2018-02-20T19:44:46.170Z,26.93
2018-02-20T19:47:12.590Z,25.43
2018-02-20T19:49:39.036Z,26.87
2018-02-20T19:52:05.438Z,21.50
2018-02-20T19:54:32.612Z,27.00
2018-02-20T19:56:59.075Z,26.63
2018-02-20T19:59:25.520Z,26.50
2018-02-20T20:01:51.969Z,27.30
2018-02-20T20:04:19.163Z,25.90
2018-02-20T20:06:45.590Z,28.37
2018-02-20T20:09:11.995Z,28.90
2018-02-20T20:11:38.435Z,27.60
2018-02-20T20:14:04.884Z,26.27
2018-02-20T20:16:31.317Z,29.07
2018-02-20T20:18:57.757Z,28.33
2018-02-20T20:21:24.221Z,25.80
2018-02-20T20:23:50.675Z,27.23
2018-02-20T20:26:17.139Z,29.23
2018-02-20T20:28:44.275Z,32.33
2018-02-20T20:31:10.675Z,28.40
2018-02-20T20:33:37.142Z,26.13
2018-02-20T20:36:03.579Z,27.87
2018-02-20T20:38:30.055Z,26.83
2018-02-20T20:40:56.541Z,28.43
2018-02-20T20:43:22.958Z,30.27
2018-02-20T20:45:49.353Z,28.50
2018-02-20T20:48:15.781Z,31.70
2018-02-20T20:50:42.222Z,28.97
2018-02-20T20:53:08.666Z,28.23
2018-02-20T20:55:35.438Z,28.30
2018-02-20T20:58:02.623Z,29.57
2018-02-20T21:00:29.777Z,30.00
2018-02-20T21:02:56.213Z,30.97
2018-02-20T21:05:22.637Z,27.17
2018-02-20T21:07:49.774Z,29.17
2018-02-20T21:10:16.232Z,30.57
2018-02-20T21:12:42.636Z,31.50
2018-02-20T21:15:09.784Z,31.60
2018-02-20T21:17:36.219Z,33.13
2018-02-20T21:20:03.467Z,29.47
2018-02-20T21:22:29.898Z,32.63
2018-02-20T21:24:56.335Z,31.30
2018-02-20T21:27:22.740Z,29.37
2018-02-20T21:29:49.196Z,30.13
2018-02-20T21:32:15.618Z,30.50
2018-02-20T21:34:42.026Z,32.50
2018-02-20T21:37:08.401Z,32.47
2018-02-20T21:39:34.833Z,31.60
2018-02-20T21:42:01.981Z,33.57
2018-02-20T21:44:28.380Z,31.77
2018-02-20T21:46:54.842Z,30.90
2018-02-20T21:49:21.245Z,33.17
2018-02-20T21:51:47.663Z,34.23
2018-02-20T21:54:14.086Z,33.67
2018-02-20T21:56:40.470Z,33.30
2018-02-20T21:59:06.912Z,33.07
2018-02-20T22:01:33.355Z,33.97
2018-02-20T22:04:00.504Z,32.27
2018-02-20T22:06:27.652Z,31.73
2018-02-20T22:08:54.097Z,32.20
2018-02-20T22:11:21.229Z,32.87
2018-02-20T22:13:47.697Z,30.43
2018-02-20T22:16:21.010Z,32.53
2018-02-20T22:18:47.476Z,33.20
2018-02-20T22:21:13.907Z,31.70
2018-02-20T22:23:40.353Z,35.50
2018-02-20T22:26:06.766Z,30.60
2018-02-20T22:28:33.188Z,34.50
2018-02-20T22:30:59.609Z,33.33
2018-02-20T22:33:26.006Z,33.40
2018-02-20T22:35:52.384Z,32.50
2018-02-20T22:38:18.816Z,34.50
2018-02-20T22:40:45.248Z,33.37
2018-02-20T22:43:11.721Z,34.63
2018-02-20T22:45:38.349Z,33.20
2018-02-20T22:48:05.511Z,33.93
2018-02-20T22:50:31.881Z,33.40
2018-02-20T22:52:58.291Z,36.63
2018-02-20T22:55:25.452Z,34.20
2018-02-20T22:57:51.851Z,32.87
2018-02-20T23:00:19.078Z,36.10
2018-02-20T23:02:45.492Z,33.97
2018-02-20T23:05:11.899Z,34.17
2018-02-20T23:07:38.341Z,33.03
2018-02-20T23:10:04.750Z,36.10
2018-02-20T23:12:31.877Z,35.00
2018-02-20T23:14:59.045Z,37.13
2018-02-20T23:17:25.481Z,36.20
2018-02-20T23:19:52.607Z,34.90
2018-02-20T23:22:19.787Z,35.80
2018-02-20T23:24:46.174Z,34.57
2018-02-20T23:27:12.594Z,37.83
2018-02-20T23:29:39.044Z,35.73
2018-02-20T23:32:05.443Z,35.23
2018-02-20T23:34:31.856Z,36.97
2018-02-20T23:36:59.077Z,38.17
2018-02-20T23:39:25.523Z,37.87
2018-02-20T23:41:51.923Z,37.70
2018-02-20T23:44:18.336Z,36.80
2018-02-20T23:46:44.719Z,38.70
2018-02-20T23:49:11.143Z,37.80
2018-02-20T23:51:37.674Z,39.33
2018-02-20T23:54:04.078Z,39.17
2018-02-20T23:56:30.462Z,40.40
2018-02-20T23:58:57.652Z,38.73
